Time;durP1;ratioP1;P1;durP2;ratioP2;P2;SDS_P1;SDS_P2;PMS_P1;PMS_P2;Temp;Humidity;BMP_temperature;BMP_pressure;BME280_temperature;BME280_humidity;BME280_pressure;Samples;Min_cycle;Max_cycle;Signal;HPM_P1;HPM_P2
2022/01/09 00:01:36;;;;;;;5.27;4.23;;;3.10;99.90;;;;;;6212532;23;20389;-51
2022/01/09 00:04:02;;;;;;;7.47;4.03;;;3.20;99.90;;;;;;6212768;23;20150;-51
2022/01/09 00:06:27;;;;;;;5.57;4.20;;;3.20;1.00;;;;;;6213142;23;20158;-52
2022/01/09 00:08:53;;;;;;;4.00;3.53;;;3.20;1.00;;;;;;6212775;23;20145;-52
2022/01/09 00:11:25;;;;;;;6.10;4.17;;;3.20;99.90;;;;;;6212865;23;20241;-51
2022/01/09 00:13:51;;;;;;;7.60;3.97;;;3.30;1.00;;;;;;6212725;23;20158;-51
2022/01/09 00:16:16;;;;;;;7.07;4.30;;;3.30;99.90;;;;;;6213093;23;20808;-52
2022/01/09 00:18:42;;;;;;;5.30;4.13;;;3.40;1.00;;;;;;6212683;23;20222;-52
2022/01/09 00:21:08;;;;;;;3.83;3.43;;;3.30;99.90;;;;;;6212599;23;20506;-52
2022/01/09 00:23:34;;;;;;;6.70;4.37;;;3.30;1.00;;;;;;6212696;23;20269;-52
2022/01/09 00:26:00;;;;;;;4.47;3.37;;;3.30;24.00;;;;;;6212620;23;20155;-51
2022/01/09 00:28:26;;;;;;;4.87;4.10;;;3.40;99.90;;;;;;6213203;23;20393;-52
2022/01/09 00:30:51;;;;;;;5.83;3.67;;;3.40;1.00;;;;;;6212787;23;20715;-52
2022/01/09 00:33:21;;;;;;;7.27;4.10;;;3.40;1.00;;;;;;6213272;23;20161;-52
2022/01/09 00:35:46;;;;;;;5.40;3.90;;;3.30;99.90;;;;;;6212499;23;20154;-52
2022/01/09 00:38:12;;;;;;;6.33;4.37;;;3.40;1.00;;;;;;6213285;23;20812;-52
2022/01/09 00:40:37;;;;;;;12.30;4.13;;;3.30;99.90;;;;;;6213260;23;20246;-52
2022/01/09 00:43:08;;;;;;;13.70;4.13;;;3.20;1.00;;;;;;6214081;23;20182;-51
2022/01/09 00:45:33;;;;;;;5.13;3.70;;;3.20;99.90;;;;;;6214770;23;20139;-51
2022/01/09 00:47:59;;;;;;;5.30;3.90;;;3.20;99.90;;;;;;6214708;23;20374;-52
2022/01/09 00:50:24;;;;;;;6.70;4.00;;;3.40;99.90;;;;;;6214666;23;20225;-52
2022/01/09 00:52:50;;;;;;;5.37;3.73;;;3.30;99.90;;;;;;6188338;23;20225;-51
2022/01/09 00:55:16;;;;;;;7.40;3.83;;;3.30;1.00;;;;;;6214155;23;20150;-52
2022/01/09 00:57:41;;;;;;;7.70;3.97;;;3.40;26.10;;;;;;6214795;23;20165;-52
2022/01/09 01:00:08;;;;;;;5.20;4.03;;;3.30;1.00;;;;;;6214379;23;20146;-53
2022/01/09 01:02:33;;;;;;;3.93;3.37;;;3.30;1.00;;;;;;6214158;23;20569;-52
2022/01/09 01:04:59;;;;;;;6.30;3.80;;;3.20;99.90;;;;;;6214358;23;20384;-52
2022/01/09 01:07:24;;;;;;;5.03;3.93;;;3.20;1.00;;;;;;6214692;23;20145;-52
2022/01/09 01:09:50;;;;;;;5.30;3.60;;;3.30;99.90;;;;;;6212623;23;20177;-52
2022/01/09 01:12:15;;;;;;;5.80;3.80;;;3.30;1.00;;;;;;6214401;23;20710;-52
2022/01/09 01:14:41;;;;;;;4.77;3.23;;;3.30;1.00;;;;;;6214347;23;20151;-52
2022/01/09 01:17:08;;;;;;;6.20;3.13;;;3.30;31.30;;;;;;6214404;23;20154;-51
2022/01/09 01:19:34;;;;;;;4.70;2.90;;;3.30;45.80;;;;;;6214608;23;20634;-52
2022/01/09 01:22:01;;;;;;;8.17;3.33;;;3.40;1.00;;;;;;6214217;23;20421;-52
2022/01/09 01:24:27;;;;;;;3.30;3.00;;;3.40;1.00;;;;;;6214644;23;20154;-51
2022/01/09 01:26:52;;;;;;;6.40;3.37;;;3.40;1.00;;;;;;6214057;23;20405;-52
2022/01/09 01:29:18;;;;;;;7.07;3.40;;;3.40;26.00;;;;;;6212319;23;20143;-52
2022/01/09 01:31:43;;;;;;;6.57;3.70;;;3.40;1.00;;;;;;6214215;23;20934;-52
2022/01/09 01:34:12;;;;;;;4.30;3.20;;;3.40;99.90;;;;;;6214411;23;20174;-52
2022/01/09 01:36:38;;;;;;;6.90;3.63;;;3.40;1.00;;;;;;6214540;23;20253;-52
2022/01/09 01:39:04;;;;;;;5.43;3.73;;;3.30;1.00;;;;;;6213691;23;20461;-51
2022/01/09 01:41:29;;;;;;;6.97;3.90;;;3.40;1.00;;;;;;6213897;23;20390;-52
2022/01/09 01:43:55;;;;;;;6.70;4.30;;;3.30;99.90;;;;;;6214048;23;20469;-51
2022/01/09 01:46:20;;;;;;;7.70;4.60;;;3.20;1.00;;;;;;6187422;23;20162;-52
2022/01/09 01:48:46;;;;;;;7.63;4.17;;;3.20;54.40;;;;;;6214188;23;20142;-52
2022/01/09 01:51:11;;;;;;;5.53;4.47;;;3.10;1.00;;;;;;6213618;23;20169;-53
2022/01/09 01:53:38;;;;;;;8.60;4.40;;;3.20;99.90;;;;;;6214023;23;20158;-52
2022/01/09 01:56:05;;;;;;;9.90;4.00;;;3.20;1.00;;;;;;6214037;23;20142;-51
2022/01/09 01:58:34;;;;;;;6.03;4.50;;;3.20;99.90;;;;;;6214208;23;20392;-52
2022/01/09 02:01:00;;;;;;;7.20;4.57;;;3.20;1.00;;;;;;6214086;23;20885;-51
2022/01/09 02:03:26;;;;;;;7.73;4.47;;;3.20;1.00;;;;;;6213922;23;20421;-52
2022/01/09 02:05:51;;;;;;;6.03;3.80;;;3.20;1.00;;;;;;6213784;23;20728;-52
2022/01/09 02:08:17;;;;;;;6.80;3.53;;;3.20;1.00;;;;;;6213922;23;20566;-51
2022/01/09 02:10:45;;;;;;;5.03;4.03;;;3.20;1.10;;;;;;6213364;23;20294;-52
2022/01/09 02:13:10;;;;;;;5.00;3.83;;;3.20;1.00;;;;;;6214070;23;20831;-51
2022/01/09 02:15:45;;;;;;;9.40;4.13;;;3.20;1.00;;;;;;6214074;23;20408;-52
2022/01/09 02:18:19;;;;;;;5.90;3.97;;;3.20;1.00;;;;;;6214330;23;20165;-51
2022/01/09 02:20:46;;;;;;;7.27;4.20;;;3.10;99.90;;;;;;6214273;23;20689;-52
2022/01/09 02:23:14;;;;;;;6.07;3.83;;;3.10;99.90;;;;;;6213762;23;20767;-52
2022/01/09 02:25:40;;;;;;;5.17;4.20;;;3.00;99.90;;;;;;6213935;23;20378;-52
2022/01/09 02:28:07;;;;;;;7.13;4.33;;;3.00;99.90;;;;;;6213793;23;20366;-52
2022/01/09 02:30:33;;;;;;;8.87;4.73;;;2.90;1.00;;;;;;6213861;23;20874;-52
2022/01/09 02:33:00;;;;;;;7.10;4.20;;;2.90;99.90;;;;;;6213939;23;21035;-51
2022/01/09 02:35:26;;;;;;;8.83;4.83;;;2.80;1.00;;;;;;6213748;23;20444;-52
2022/01/09 02:37:53;;;;;;;8.87;4.77;;;2.70;1.00;;;;;;6213601;23;20377;-52
2022/01/09 02:40:18;;;;;;;6.23;4.90;;;2.80;99.90;;;;;;6213476;23;20365;-52
2022/01/09 02:42:44;;;;;;;8.67;4.90;;;2.70;99.90;;;;;;6213317;23;20416;-52
2022/01/09 02:45:10;;;;;;;12.13;4.70;;;2.70;99.90;;;;;;6186952;23;20159;-52
2022/01/09 02:47:37;;;;;;;8.80;5.33;;;2.70;99.90;;;;;;6213506;23;20218;-52
2022/01/09 02:50:31;;;;;;;14.73;6.17;;;2.70;99.90;;;;;;6213377;23;20139;-51
2022/01/09 02:53:01;;;;;;;7.10;4.53;;;2.70;99.90;;;;;;6213769;23;21129;-52
2022/01/09 02:55:29;;;;;;;8.27;4.70;;;2.70;99.90;;;;;;6212418;23;20366;-52
2022/01/09 02:57:59;;;;;;;18.27;5.27;;;2.70;1.00;;;;;;6213456;23;20432;-51
2022/01/09 03:00:34;;;;;;;8.20;4.70;;;2.60;99.90;;;;;;6213535;23;20432;-51
2022/01/09 03:03:00;;;;;;;6.70;5.10;;;2.60;96.10;;;;;;6213322;23;20421;-51
2022/01/09 03:05:28;;;;;;;7.57;4.80;;;2.60;99.90;;;;;;6213378;23;20704;-51
2022/01/09 03:07:54;;;;;;;6.47;4.73;;;2.60;99.90;;;;;;6213327;23;20482;-51
2022/01/09 03:10:21;;;;;;;6.17;4.40;;;2.60;1.00;;;;;;6213622;23;20435;-51
2022/01/09 03:12:49;;;;;;;8.60;5.30;;;2.60;1.00;;;;;;6213544;23;20370;-52
2022/01/09 03:15:16;;;;;;;8.03;5.20;;;2.50;83.40;;;;;;6213483;23;20704;-51
2022/01/09 03:17:42;;;;;;;7.20;4.93;;;2.50;99.90;;;;;;6212975;23;20389;-51
2022/01/09 03:20:20;;;;;;;7.93;5.33;;;2.60;1.00;;;;;;6213649;23;20428;-51
2022/01/09 03:22:46;;;;;;;9.93;5.60;;;2.50;99.90;;;;;;6212914;23;20437;-51
2022/01/09 03:25:12;;;;;;;10.37;5.10;;;2.50;7.90;;;;;;6213240;23;20850;-51
2022/01/09 03:27:40;;;;;;;8.77;5.77;;;2.50;1.00;;;;;;6212946;23;20405;-51
2022/01/09 03:30:08;;;;;;;8.70;5.07;;;2.50;1.00;;;;;;6212937;23;20393;-52
2022/01/09 03:32:34;;;;;;;7.47;4.80;;;2.40;8.60;;;;;;6212872;23;20377;-52
2022/01/09 03:35:00;;;;;;;6.57;4.67;;;2.40;95.00;;;;;;6213275;23;20812;-52
2022/01/09 03:37:25;;;;;;;11.80;5.40;;;2.40;99.90;;;;;;6212750;23;20452;-51
2022/01/09 03:39:52;;;;;;;8.60;4.73;;;2.50;1.00;;;;;;6211181;23;20794;-51
2022/01/09 03:42:18;;;;;;;11.00;5.27;;;2.50;99.90;;;;;;6212941;23;20258;-52
2022/01/09 03:44:43;;;;;;;9.57;5.10;;;2.60;83.00;;;;;;6213033;23;20512;-52
2022/01/09 03:47:09;;;;;;;12.70;5.40;;;2.60;99.90;;;;;;6213064;23;20147;-52
2022/01/09 03:49:34;;;;;;;10.03;5.57;;;2.60;33.50;;;;;;6212856;23;20154;-52
2022/01/09 03:52:00;;;;;;;7.60;5.30;;;2.60;1.00;;;;;;6212981;23;20147;-52
2022/01/09 03:54:26;;;;;;;7.67;4.87;;;2.60;99.90;;;;;;6212902;23;20231;-52
2022/01/09 03:56:52;;;;;;;12.83;6.07;;;2.50;99.90;;;;;;6210514;23;20465;-52
2022/01/09 03:59:18;;;;;;;12.07;5.43;;;2.50;99.90;;;;;;6212934;23;20146;-52
2022/01/09 04:01:44;;;;;;;8.70;5.50;;;2.50;1.00;;;;;;6212505;23;20896;-52
2022/01/09 04:04:10;;;;;;;11.00;6.07;;;2.50;99.90;;;;;;6212963;23;20174;-52
2022/01/09 04:06:39;;;;;;;8.67;5.00;;;2.50;99.90;;;;;;6186416;23;20385;-52
2022/01/09 04:09:06;;;;;;;9.93;5.43;;;2.50;99.90;;;;;;6212365;23;20431;-52
2022/01/09 04:11:36;;;;;;;10.33;5.33;;;2.50;99.90;;;;;;6212246;23;20448;-51
2022/01/09 04:14:02;;;;;;;11.37;5.53;;;2.50;1.00;;;;;;6212944;23;20369;-52
2022/01/09 04:16:28;;;;;;;9.17;5.50;;;2.50;99.90;;;;;;6212812;23;20983;-52
2022/01/09 04:18:53;;;;;;;11.00;5.77;;;2.50;91.70;;;;;;6214689;23;20370;-52
2022/01/09 04:21:19;;;;;;;9.40;5.10;;;2.50;99.90;;;;;;6215133;23;20222;-52
2022/01/09 04:23:45;;;;;;;7.03;5.00;;;2.60;1.00;;;;;;6214239;23;20182;-52
2022/01/09 04:26:10;;;;;;;13.47;5.60;;;2.60;99.90;;;;;;6188331;23;20162;-52
2022/01/09 04:28:36;;;;;;;7.70;5.37;;;2.60;99.90;;;;;;6214564;23;20151;-52
2022/01/09 04:31:02;;;;;;;7.87;5.43;;;2.60;45.70;;;;;;6214660;23;20149;-52
2022/01/09 04:33:27;;;;;;;7.10;5.37;;;2.60;1.00;;;;;;6214743;23;20155;-52
2022/01/09 04:35:53;;;;;;;11.60;5.47;;;2.60;1.00;;;;;;6214393;23;20463;-52
2022/01/09 04:38:18;;;;;;;11.30;5.40;;;2.60;99.90;;;;;;6188061;23;20166;-52
2022/01/09 04:40:44;;;;;;;10.17;5.50;;;2.60;1.00;;;;;;6214882;23;20146;-52
2022/01/09 04:43:11;;;;;;;5.60;4.50;;;2.60;1.00;;;;;;6214513;23;20178;-52
2022/01/09 04:45:36;;;;;;;12.20;5.50;;;2.60;1.00;;;;;;6214950;23;20164;-52
2022/01/09 04:48:06;;;;;;;11.60;5.37;;;2.60;1.00;;;;;;6214113;23;20456;-52
2022/01/09 04:50:34;;;;;;;10.37;5.90;;;2.60;22.10;;;;;;6215109;23;20149;-52
2022/01/09 04:53:05;;;;;;;6.60;4.93;;;2.60;99.90;;;;;;6214651;23;20393;-52
2022/01/09 04:55:33;;;;;;;10.03;5.17;;;2.60;99.90;;;;;;6214591;23;20461;-52
2022/01/09 04:57:59;;;;;;;7.30;5.13;;;2.70;99.90;;;;;;6214769;23;20405;-52
2022/01/09 05:00:25;;;;;;;8.67;5.47;;;2.70;48.80;;;;;;6214339;23;20373;-52
2022/01/09 05:02:50;;;;;;;10.73;5.07;;;2.70;1.00;;;;;;6213829;23;20969;-52
2022/01/09 05:05:16;;;;;;;9.10;5.40;;;2.70;1.00;;;;;;6214331;23;20444;-52
2022/01/09 05:07:42;;;;;;;7.10;5.20;;;2.60;1.00;;;;;;6214311;23;20233;-52
2022/01/09 05:10:09;;;;;;;7.90;5.20;;;2.60;1.00;;;;;;6214572;23;20171;-52
2022/01/09 05:12:36;;;;;;;8.53;5.37;;;2.60;99.90;;;;;;6214428;23;20408;-52
2022/01/09 05:15:03;;;;;;;11.87;4.70;;;2.60;94.90;;;;;;6214196;23;20374;-52
2022/01/09 05:17:29;;;;;;;8.00;4.80;;;2.60;99.90;;;;;;6188066;23;20397;-52
2022/01/09 05:19:57;;;;;;;10.80;5.70;;;2.50;99.90;;;;;;6214262;23;20378;-52
2022/01/09 05:22:24;;;;;;;8.33;5.40;;;2.40;1.00;;;;;;6214523;23;20178;-53
2022/01/09 05:24:51;;;;;;;10.00;5.67;;;2.40;1.00;;;;;;6214617;23;20377;-52
2022/01/09 05:27:16;;;;;;;9.43;5.70;;;2.40;1.00;;;;;;6214304;23;20365;-52
2022/01/09 05:29:42;;;;;;;7.93;5.50;;;2.40;1.00;;;;;;6213909;23;20378;-52
2022/01/09 05:32:08;;;;;;;13.47;6.20;;;2.30;99.90;;;;;;6214124;23;20388;-52
2022/01/09 05:34:34;;;;;;;7.63;5.40;;;2.40;1.00;;;;;;6214250;23;20201;-53
2022/01/09 05:36:59;;;;;;;11.10;6.47;;;2.30;25.70;;;;;;6213711;23;20805;-52
2022/01/09 05:39:25;;;;;;;10.73;6.47;;;2.30;99.90;;;;;;6214008;23;20646;-52
2022/01/09 05:41:51;;;;;;;10.37;7.37;;;2.30;39.30;;;;;;6214068;23;20155;-52
2022/01/09 05:44:18;;;;;;;8.90;6.70;;;2.20;99.90;;;;;;6213864;23;20154;-52
2022/01/09 05:46:44;;;;;;;9.67;6.40;;;2.10;1.00;;;;;;6212471;23;20377;-52
2022/01/09 05:49:09;;;;;;;10.40;7.43;;;2.10;99.90;;;;;;6187400;23;20397;-52
2022/01/09 05:51:35;;;;;;;13.33;7.17;;;2.10;1.00;;;;;;6187198;23;20158;-52
2022/01/09 05:54:01;;;;;;;12.50;7.23;;;2.10;99.90;;;;;;6213747;23;20168;-52
2022/01/09 05:56:26;;;;;;;11.80;7.37;;;2.10;99.90;;;;;;6213765;23;20142;-52
2022/01/09 05:58:52;;;;;;;13.73;8.70;;;2.10;99.90;;;;;;6213845;23;20142;-52
2022/01/09 06:01:17;;;;;;;11.27;7.63;;;2.00;1.00;;;;;;6214002;23;20169;-52
2022/01/09 06:03:43;;;;;;;13.63;8.87;;;2.00;1.00;;;;;;6213825;23;20178;-52
2022/01/09 06:06:08;;;;;;;13.03;8.13;;;2.00;1.00;;;;;;6213780;23;20171;-52
2022/01/09 06:08:34;;;;;;;16.47;8.70;;;2.00;1.00;;;;;;6213879;23;20743;-52
2022/01/09 06:10:59;;;;;;;15.00;8.80;;;2.00;1.00;;;;;;6213594;23;20707;-52
2022/01/09 06:13:25;;;;;;;12.20;8.50;;;1.90;1.00;;;;;;6213445;23;20143;-52
2022/01/09 06:15:50;;;;;;;11.30;8.30;;;1.90;1.00;;;;;;6213628;23;20451;-54
2022/01/09 06:18:20;;;;;;;17.10;9.70;;;1.80;1.00;;;;;;6187053;23;20159;-52
2022/01/09 06:20:50;;;;;;;16.87;9.70;;;1.80;1.00;;;;;;6186659;23;20193;-52
2022/01/09 06:23:19;;;;;;;15.53;9.20;;;1.80;1.00;;;;;;6213789;23;20429;-52
2022/01/09 06:25:46;;;;;;;17.63;9.03;;;1.90;1.00;;;;;;6213584;23;20879;-52
2022/01/09 06:28:11;;;;;;;20.40;10.87;;;1.90;1.00;;;;;;6213791;23;20366;-52
2022/01/09 06:30:37;;;;;;;15.47;10.27;;;2.00;1.00;;;;;;6187050;23;20419;-52
2022/01/09 06:33:02;;;;;;;17.13;10.00;;;1.90;1.00;;;;;;6213344;23;20146;-52
2022/01/09 06:35:28;;;;;;;18.00;9.57;;;2.00;1.00;;;;;;6186548;23;20661;-52
2022/01/09 06:37:53;;;;;;;15.53;10.23;;;1.90;1.00;;;;;;6186863;23;20162;-52
2022/01/09 06:40:19;;;;;;;18.60;9.70;;;1.90;1.00;;;;;;6212999;23;20184;-52
2022/01/09 06:42:45;;;;;;;15.53;10.00;;;1.90;1.00;;;;;;6213067;23;20174;-52
2022/01/09 06:45:12;;;;;;;16.20;10.80;;;1.90;1.00;;;;;;6213488;23;20158;-52
2022/01/09 06:47:37;;;;;;;16.60;10.20;;;1.90;1.00;;;;;;6212829;23;20392;-52
2022/01/09 06:50:04;;;;;;;15.33;10.30;;;1.90;1.00;;;;;;6213353;23;20370;-52
2022/01/09 06:52:29;;;;;;;22.93;10.60;;;2.00;18.10;;;;;;6213615;23;20183;-52
2022/01/09 06:54:55;;;;;;;16.07;9.97;;;1.90;1.00;;;;;;6213328;23;20390;-52
2022/01/09 06:57:20;;;;;;;16.67;9.43;;;1.90;1.00;;;;;;6213063;23;20155;-52
2022/01/09 06:59:46;;;;;;;15.70;10.10;;;2.00;67.60;;;;;;6213271;23;20206;-52
2022/01/09 07:02:11;;;;;;;14.70;8.90;;;2.00;5.40;;;;;;6213371;23;20194;-52
2022/01/09 07:04:37;;;;;;;15.30;8.67;;;1.90;11.60;;;;;;6213249;23;20464;-52
2022/01/09 07:07:02;;;;;;;18.47;9.20;;;1.90;95.60;;;;;;6213653;23;20175;-52
2022/01/09 07:09:28;;;;;;;16.40;9.10;;;2.00;30.80;;;;;;6213266;23;20190;-53
2022/01/09 07:11:53;;;;;;;15.43;9.23;;;1.90;1.00;;;;;;6212635;23;20205;-52
2022/01/09 07:14:19;;;;;;;13.33;9.87;;;1.90;1.00;;;;;;6213526;23;20151;-51
2022/01/09 07:16:45;;;;;;;12.70;9.30;;;1.90;37.40;;;;;;6213005;23;20216;-52
2022/01/09 07:19:10;;;;;;;18.10;9.67;;;1.90;99.90;;;;;;6213167;23;20218;-52
2022/01/09 07:21:36;;;;;;;17.20;9.83;;;1.90;1.00;;;;;;6213382;23;20462;-52
2022/01/09 07:24:01;;;;;;;12.57;9.00;;;1.90;1.00;;;;;;6212707;23;20660;-52
2022/01/09 07:26:27;;;;;;;18.07;10.30;;;1.90;1.00;;;;;;6213266;23;20593;-51
2022/01/09 07:28:52;;;;;;;15.40;9.27;;;1.90;1.00;;;;;;6213350;23;20146;-52
2022/01/09 07:31:18;;;;;;;15.00;9.40;;;1.90;1.00;;;;;;6213017;23;20174;-52
2022/01/09 07:33:43;;;;;;;15.60;10.63;;;1.80;1.00;;;;;;6211181;23;20300;-52
2022/01/09 07:36:09;;;;;;;15.50;10.30;;;1.80;1.00;;;;;;6212764;23;20460;-52
2022/01/09 07:38:34;;;;;;;16.50;10.30;;;1.80;1.00;;;;;;6213033;23;20228;-52
2022/01/09 07:41:00;;;;;;;14.57;9.63;;;1.90;1.00;;;;;;6186577;23;20162;-52
2022/01/09 07:43:25;;;;;;;20.00;11.80;;;1.90;1.00;;;;;;6213110;23;20170;-52
2022/01/09 07:45:51;;;;;;;17.03;10.73;;;1.90;1.00;;;;;;6213113;23;20154;-52
2022/01/09 07:48:17;;;;;;;16.80;11.10;;;2.00;1.80;;;;;;6185813;23;20445;-52
2022/01/09 07:50:42;;;;;;;19.33;10.70;;;1.90;1.00;;;;;;6212988;23;20145;-52
2022/01/09 07:53:08;;;;;;;14.10;10.07;;;1.90;37.70;;;;;;6213291;23;20169;-52
2022/01/09 07:55:34;;;;;;;16.83;10.80;;;1.90;1.00;;;;;;6212843;23;20232;-52
2022/01/09 07:57:59;;;;;;;15.97;10.40;;;2.00;1.00;;;;;;6186476;23;20166;-52
2022/01/09 08:00:25;;;;;;;15.00;9.60;;;1.90;1.00;;;;;;6212568;23;20222;-52
2022/01/09 08:02:51;;;;;;;17.77;10.20;;;1.90;1.00;;;;;;6212640;23;20265;-52
2022/01/09 08:05:17;;;;;;;14.80;9.83;;;1.90;1.00;;;;;;6213005;23;20167;-52
2022/01/09 08:07:44;;;;;;;17.13;10.57;;;1.90;1.00;;;;;;6212932;23;20421;-54
2022/01/09 08:10:10;;;;;;;14.50;9.47;;;1.90;1.00;;;;;;6211957;23;20462;-54
2022/01/09 08:12:36;;;;;;;14.20;10.57;;;1.90;1.00;;;;;;6213401;23;20377;-55
2022/01/09 08:15:01;;;;;;;16.50;10.03;;;1.90;1.00;;;;;;6212246;23;20485;-54
2022/01/09 08:17:27;;;;;;;15.30;9.60;;;1.90;1.00;;;;;;6212337;23;20523;-55
2022/01/09 08:19:52;;;;;;;14.47;10.00;;;2.00;1.00;;;;;;6213043;23;20153;-54
2022/01/09 08:22:18;;;;;;;16.73;9.17;;;2.10;1.00;;;;;;6212621;23;20265;-55
2022/01/09 08:24:44;;;;;;;14.87;9.30;;;2.00;1.00;;;;;;6213289;23;20245;-55
2022/01/09 08:27:10;;;;;;;17.50;10.57;;;2.10;1.00;;;;;;6212633;23;20143;-54
2022/01/09 08:29:40;;;;;;;14.30;9.80;;;2.00;1.00;;;;;;6212950;23;20143;-54
2022/01/09 08:32:06;;;;;;;15.43;9.80;;;2.00;1.00;;;;;;6212793;23;20435;-55
2022/01/09 08:34:33;;;;;;;16.03;9.67;;;2.10;1.00;;;;;;6212983;23;20416;-54
2022/01/09 08:36:59;;;;;;;14.50;9.70;;;2.10;1.00;;;;;;6213016;23;20377;-54
2022/01/09 08:39:24;;;;;;;14.63;9.60;;;2.10;1.00;;;;;;6212385;23;20447;-55
2022/01/09 08:41:50;;;;;;;15.30;9.87;;;2.10;1.00;;;;;;6212712;23;20566;-54
2022/01/09 08:44:15;;;;;;;13.77;9.33;;;2.10;1.00;;;;;;6212721;23;20656;-54
2022/01/09 08:46:41;;;;;;;15.87;9.57;;;2.20;1.00;;;;;;6212322;23;20208;-56
2022/01/09 08:49:06;;;;;;;15.90;10.80;;;2.10;1.00;;;;;;6212709;23;20258;-54
2022/01/09 08:51:32;;;;;;;14.67;9.77;;;2.20;1.00;;;;;;6212450;23;20139;-56
2022/01/09 08:53:58;;;;;;;14.90;10.07;;;2.30;1.00;;;;;;6212639;23;20167;-55
2022/01/09 08:56:26;;;;;;;13.90;9.60;;;2.30;1.00;;;;;;6186597;23;20170;-55
2022/01/09 08:58:51;;;;;;;13.70;9.40;;;2.30;1.00;;;;;;6212666;23;20384;-54
2022/01/09 09:01:17;;;;;;;13.43;8.97;;;2.30;1.00;;;;;;6212336;23;20397;-55
2022/01/09 09:03:44;;;;;;;14.20;9.40;;;2.40;39.90;;;;;;6213681;23;20429;-54
2022/01/09 09:06:12;;;;;;;13.60;9.60;;;2.50;12.60;;;;;;6214203;23;20763;-55
2022/01/09 09:08:39;;;;;;;13.33;9.30;;;2.50;9.70;;;;;;6214088;23;20753;-55
2022/01/09 09:11:06;;;;;;;14.50;9.37;;;2.60;1.00;;;;;;6213879;23;20437;-54
2022/01/09 09:13:32;;;;;;;15.30;9.20;;;2.60;1.00;;;;;;6187909;23;20390;-54
2022/01/09 09:15:57;;;;;;;16.13;9.77;;;2.60;1.00;;;;;;6214429;23;20385;-55
2022/01/09 09:18:23;;;;;;;14.50;10.33;;;2.50;1.00;;;;;;6214130;23;20198;-52
2022/01/09 09:20:49;;;;;;;17.03;10.07;;;2.60;1.00;;;;;;6214815;23;20733;-52
2022/01/09 09:23:14;;;;;;;16.00;9.50;;;2.70;1.00;;;;;;6185720;23;20433;-54
2022/01/09 09:25:40;;;;;;;13.50;9.33;;;2.70;1.00;;;;;;6214069;23;20149;-54
2022/01/09 09:28:06;;;;;;;15.77;8.97;;;2.70;1.00;;;;;;6214422;23;20158;-55
2022/01/09 09:30:31;;;;;;;13.40;9.10;;;2.80;1.00;;;;;;6214128;23;20146;-55
2022/01/09 09:32:57;;;;;;;14.50;9.10;;;2.90;1.00;;;;;;6186616;23;20228;-55
2022/01/09 09:35:23;;;;;;;14.67;9.00;;;2.90;1.00;;;;;;6212841;23;20197;-55
2022/01/09 09:37:48;;;;;;;13.67;8.67;;;2.90;1.00;;;;;;6214209;23;20143;-55
2022/01/09 09:40:14;;;;;;;15.10;10.00;;;2.90;1.00;;;;;;6214221;23;20474;-55
2022/01/09 09:42:40;;;;;;;13.97;9.53;;;2.90;1.00;;;;;;6213909;23;20174;-56
2022/01/09 09:45:08;;;;;;;21.80;13.83;;;2.90;1.00;;;;;;6214422;23;20688;-55
2022/01/09 09:47:34;;;;;;;20.33;9.33;;;2.90;99.90;;;;;;6213996;23;20537;-55
2022/01/09 09:50:02;;;;;;;12.13;8.87;;;2.90;99.90;;;;;;6213950;23;20390;-56
2022/01/09 09:52:27;;;;;;;14.10;9.53;;;2.90;1.00;;;;;;6212409;23;20424;-55
2022/01/09 09:54:54;;;;;;;13.40;9.20;;;3.10;1.00;;;;;;6214130;23;20381;-55
2022/01/09 09:57:20;;;;;;;16.60;9.43;;;3.10;1.00;;;;;;6213495;23;20274;-55
2022/01/09 09:59:46;;;;;;;15.60;8.90;;;3.10;1.00;;;;;;6214307;23;20393;-55
2022/01/09 10:02:13;;;;;;;12.60;9.33;;;3.10;1.00;;;;;;6213806;23;20185;-55
2022/01/09 10:05:02;;;;;;;11.10;8.53;;;3.20;1.00;;;;;;6214314;23;20142;-55
2022/01/09 10:07:29;;;;;;;13.30;8.73;;;3.20;1.00;;;;;;6213780;23;20828;-55
2022/01/09 10:10:03;;;;;;;13.43;9.00;;;3.20;1.00;;;;;;6214003;23;20809;-55
2022/01/09 10:12:31;;;;;;;15.90;10.10;;;3.20;1.00;;;;;;6213671;23;20429;-52
2022/01/09 10:14:59;;;;;;;13.60;8.83;;;3.20;1.00;;;;;;6213735;23;20409;-52
2022/01/09 10:17:26;;;;;;;12.60;8.20;;;3.30;1.00;;;;;;6213752;23;20439;-52
2022/01/09 10:20:01;;;;;;;11.73;8.10;;;3.40;1.00;;;;;;6213955;23;20370;-52
2022/01/09 10:22:36;;;;;;;14.97;9.17;;;3.40;1.00;;;;;;6213689;23;20416;-53
2022/01/09 10:25:31;;;;;;;10.43;7.57;;;3.40;1.00;;;;;;6214420;23;20373;-52
2022/01/09 10:28:13;;;;;;;11.20;7.90;;;3.40;1.00;;;;;;6187979;23;20397;-52
2022/01/09 10:30:44;;;;;;;12.03;7.50;;;3.40;1.00;;;;;;6214017;23;20369;-55
2022/01/09 10:33:13;;;;;;;11.37;7.90;;;3.50;1.00;;;;;;6213011;23;20369;-52
2022/01/09 10:35:41;;;;;;;10.70;7.80;;;3.40;1.00;;;;;;6186693;23;20444;-52
2022/01/09 10:38:16;;;;;;;9.77;7.90;;;3.40;1.00;;;;;;6213633;23;20380;-52
2022/01/09 10:40:44;;;;;;;10.30;7.80;;;3.40;1.00;;;;;;6213777;23;20435;-52
2022/01/09 10:43:16;;;;;;;10.90;7.73;;;3.40;1.00;;;;;;6214020;23;20421;-52
2022/01/09 10:45:47;;;;;;;11.97;7.90;;;3.50;1.00;;;;;;6213990;23;20373;-53
2022/01/09 10:48:18;;;;;;;11.80;8.03;;;3.40;1.00;;;;;;6213704;23;20362;-52
2022/01/09 10:50:44;;;;;;;13.60;7.83;;;3.40;1.00;;;;;;6214145;23;20381;-52
2022/01/09 10:53:18;;;;;;;11.50;7.90;;;3.40;1.00;;;;;;6213543;23;20978;-52
2022/01/09 10:56:08;;;;;;;10.83;7.67;;;3.40;1.00;;;;;;6213591;23;20461;-52
2022/01/09 10:58:39;;;;;;;12.73;7.93;;;3.50;1.00;;;;;;6197492;23;20420;-52
2022/01/09 11:01:11;;;;;;;10.40;7.77;;;3.50;1.00;;;;;;6213734;23;20362;-52
2022/01/09 11:03:37;;;;;;;11.90;7.70;;;3.60;1.00;;;;;;6213169;23;20525;-53
2022/01/09 11:06:03;;;;;;;11.77;7.60;;;3.50;1.00;;;;;;6186867;23;20854;-53
2022/01/09 11:08:30;;;;;;;10.80;7.60;;;3.50;7.60;;;;;;6213338;23;20392;-52
2022/01/09 11:10:57;;;;;;;10.07;7.40;;;3.50;23.00;;;;;;6212967;23;20670;-52
2022/01/09 11:13:25;;;;;;;8.73;7.33;;;3.60;45.90;;;;;;6211114;23;20685;-52
2022/01/09 11:18:37;;;;;;;11.30;8.00;;;3.70;44.50;;;;;;6213182;23;20795;-57
2022/01/09 11:21:02;;;;;;;10.07;7.70;;;3.70;26.90;;;;;;6213459;23;20707;-53
2022/01/09 11:23:41;;;;;;;12.50;7.50;;;3.60;24.60;;;;;;6213161;23;20421;-54
2022/01/09 11:26:09;;;;;;;9.30;7.40;;;3.60;25.10;;;;;;6213331;23;20165;-52
2022/01/09 11:28:37;;;;;;;9.77;7.63;;;3.70;29.90;;;;;;6213667;23;20866;-52
2022/01/09 11:31:14;;;;;;;9.37;7.83;;;3.70;30.80;;;;;;6213586;23;20374;-51
2022/01/09 11:34:07;;;;;;;11.20;8.27;;;3.70;35.50;;;;;;6186615;23;20887;-51
2022/01/09 11:37:09;;;;;;;10.17;7.93;;;3.70;35.60;;;;;;6213708;23;21122;-51
2022/01/09 11:39:36;;;;;;;13.73;8.73;;;3.70;28.80;;;;;;6150715;23;20389;-51
2022/01/09 11:42:13;;;;;;;14.33;8.20;;;3.70;44.40;;;;;;6212886;23;20419;-52
2022/01/09 11:44:53;;;;;;;14.57;9.40;;;3.70;70.90;;;;;;6213136;23;20361;-51
2022/01/09 11:47:19;;;;;;;10.10;7.93;;;3.80;98.30;;;;;;6213298;23;20362;-51
2022/01/09 11:49:55;;;;;;;11.00;8.23;;;3.90;99.90;;;;;;6213390;23;20366;-51
2022/01/09 11:52:26;;;;;;;11.07;8.20;;;3.90;99.90;;;;;;6213355;23;20381;-51
2022/01/09 11:55:00;;;;;;;10.17;7.60;;;3.90;99.90;;;;;;6212678;23;20527;-52
2022/01/09 11:57:47;;;;;;;11.60;7.83;;;4.00;99.90;;;;;;6213193;23;20373;-52
2022/01/09 12:00:38;;;;;;;13.17;7.67;;;4.10;99.90;;;;;;6212630;23;20373;-52
2022/01/09 12:03:26;;;;;;;15.70;8.07;;;4.20;98.10;;;;;;6212966;23;20452;-52
2022/01/09 12:06:08;;;;;;;12.60;8.10;;;4.10;68.30;;;;;;6213124;23;20373;-52
2022/01/09 12:08:53;;;;;;;13.03;8.80;;;4.10;62.90;;;;;;6212920;23;20846;-52
2022/01/09 12:11:18;;;;;;;14.10;7.50;;;4.10;88.90;;;;;;6212867;23;20468;-53
2022/01/09 12:13:47;;;;;;;16.40;8.30;;;4.20;99.90;;;;;;6213207;23;20427;-52
2022/01/09 12:16:45;;;;;;;13.17;7.97;;;4.30;99.90;;;;;;6212829;23;20561;-52
2022/01/09 12:19:11;;;;;;;12.50;7.60;;;4.30;99.90;;;;;;6186477;23;20397;-52
2022/01/09 12:21:39;;;;;;;12.63;7.60;;;4.40;99.90;;;;;;6212708;23;20381;-52
2022/01/09 12:24:37;;;;;;;16.07;8.90;;;4.40;99.90;;;;;;6186296;23;20193;-52
2022/01/09 12:27:42;;;;;;;16.07;7.90;;;4.40;99.90;;;;;;6212814;23;20373;-52
2022/01/09 12:30:10;;;;;;;12.03;7.70;;;4.50;99.90;;;;;;6213321;23;20365;-52
2022/01/09 12:32:43;;;;;;;10.90;7.60;;;4.50;99.90;;;;;;6212661;23;20663;-53
2022/01/09 12:35:18;;;;;;;14.50;7.20;;;4.60;99.90;;;;;;6212796;23;20389;-52
2022/01/09 12:37:45;;;;;;;10.90;7.10;;;4.70;99.90;;;;;;6206832;23;20472;-54
2022/01/09 12:40:14;;;;;;;9.57;6.37;;;4.60;99.90;;;;;;6212347;23;20400;-54
2022/01/09 12:42:46;;;;;;;10.80;6.70;;;4.70;99.90;;;;;;6211089;23;20760;-53
2022/01/09 12:45:12;;;;;;;12.30;6.40;;;4.70;99.90;;;;;;6211859;23;20365;-52
2022/01/09 12:47:39;;;;;;;11.80;5.97;;;4.70;99.90;;;;;;6212122;23;20382;-53
2022/01/09 12:50:05;;;;;;;14.10;7.10;;;4.70;99.90;;;;;;6210646;23;20374;-53
2022/01/09 12:52:30;;;;;;;11.00;6.23;;;4.80;99.90;;;;;;6211433;23;20447;-54
2022/01/09 12:55:22;;;;;;;12.33;6.40;;;4.70;99.90;;;;;;6211281;23;20573;-54
2022/01/09 12:57:52;;;;;;;12.17;6.93;;;4.70;99.90;;;;;;6205506;23;20194;-56
2022/01/09 13:00:29;;;;;;;12.00;6.17;;;4.70;99.90;;;;;;6184281;23;20397;-53
2022/01/09 13:02:57;;;;;;;10.83;6.60;;;4.80;99.90;;;;;;6210972;23;20424;-53